Time;durP1;ratioP1;P1;durP2;ratioP2;P2;SDS_P1;SDS_P2;PMS_P1;PMS_P2;Temp;Humidity;BMP_temperature;BMP_pressure;BME280_temperature;BME280_humidity;BME280_pressure;Samples;Min_cycle;Max_cycle;Signal;HPM_P1;HPM_P2
2023/04/12 00:01:07;;;;;;;4.15;2.40;;;;;;;3.60;93.09;99644.94;10522596;28;20100;-78
2023/04/12 00:06:09;;;;;;;3.33;2.15;;;;;;;3.75;91.39;99649.97;10543584;28;20498;-79
2023/04/12 00:11:11;;;;;;;4.85;2.30;;;;;;;3.38;93.36;99638.22;10539472;28;20064;-78
2023/04/12 00:16:14;;;;;;;3.65;2.42;;;;;;;3.21;95.56;99627.97;10539526;28;20139;-79
2023/04/12 00:21:18;;;;;;;3.33;2.55;;;;;;;3.43;95.50;99639.03;10541614;28;20449;-78
2023/04/12 00:26:20;;;;;;;3.45;2.70;;;;;;;3.36;93.45;99624.34;10518324;28;20040;-78
2023/04/12 00:31:23;;;;;;;2.90;2.25;;;;;;;3.32;93.17;99614.88;10519775;28;20063;-79
2023/04/12 00:36:25;;;;;;;3.42;2.50;;;;;;;3.16;94.26;99612.41;10520072;28;20135;-78
2023/04/12 00:41:27;;;;;;;3.70;2.55;;;;;;;3.11;94.52;99609.00;10518297;28;20054;-78
2023/04/12 00:46:31;;;;;;;4.30;2.92;;;;;;;2.96;96.46;99609.13;10519150;28;20092;-78
2023/04/12 00:51:33;;;;;;;4.18;2.50;;;;;;;3.01;97.14;99605.63;10522027;28;20048;-78
2023/04/12 00:56:36;;;;;;;3.95;2.83;;;;;;;2.88;96.29;99593.63;10543172;28;20040;-78
2023/04/12 01:01:39;;;;;;;3.65;2.92;;;;;;;2.76;98.06;99593.69;10540298;28;20067;-78
2023/04/12 01:07:26;;;;;;;4.30;2.92;;;;;;;2.66;98.04;99585.13;10522136;28;20106;-79
2023/04/12 01:12:36;;;;;;;4.07;3.42;;;;;;;2.70;98.63;99579.03;10349364;28;20066;-78
2023/04/12 01:17:56;;;;;;;3.70;2.90;;;;;;;3.06;94.61;99577.03;10349020;28;20058;-77
2023/04/12 01:23:27;;;;;;;2.83;2.58;;;;;;;2.66;96.39;99576.47;10355188;28;20121;-78
2023/04/12 01:28:33;;;;;;;5.57;2.85;;;;;;;2.61;97.04;99570.44;10378185;28;20239;-78
2023/04/12 01:33:39;;;;;;;3.55;3.10;;;;;;;2.38;97.88;99555.88;10377158;28;20037;-78
2023/04/12 01:38:42;;;;;;;2.90;2.60;;;;;;;2.44;97.72;99545.50;10373847;28;20132;-78
2023/04/12 01:43:46;;;;;;;2.70;2.50;;;;;;;2.23;99.22;99549.06;10375586;28;20069;-78
2023/04/12 01:48:51;;;;;;;5.00;4.15;;;;;;;2.11;100.00;99536.16;10527309;28;20171;-78
2023/04/12 01:53:59;;;;;;;4.55;3.75;;;;;;;2.11;100.00;99527.53;10532707;28;20082;-79
2023/04/12 01:59:03;;;;;;;4.50;3.58;;;;;;;2.23;100.00;99524.88;10529647;28;20072;-79
2023/04/12 02:04:06;;;;;;;5.05;3.90;;;;;;;2.63;97.25;99520.28;10543902;28;20040;-77
2023/04/12 02:09:09;;;;;;;4.68;3.78;;;;;;;2.32;97.98;99524.81;10550101;28;20055;-78
2023/04/12 02:14:10;;;;;;;4.53;4.13;;;;;;;2.00;100.00;99514.66;10534239;28;20387;-78
2023/04/12 02:19:12;;;;;;;4.90;3.72;;;;;;;1.84;100.00;99508.66;10554155;28;20093;-79
2023/04/12 02:24:16;;;;;;;5.80;4.30;;;;;;;1.71;100.00;99494.91;10529947;28;20107;-79
2023/04/12 02:29:18;;;;;;;6.05;4.80;;;;;;;2.14;100.00;99491.22;10528009;28;20227;-78
2023/04/12 02:34:21;;;;;;;5.47;4.03;;;;;;;2.14;100.00;99494.69;10541772;28;20101;-78
2023/04/12 02:39:31;;;;;;;5.07;4.60;;;;;;;2.12;99.72;99485.19;10535227;28;20477;-78
2023/04/12 02:44:33;;;;;;;9.27;4.13;;;;;;;1.90;99.00;99498.25;10528570;28;20421;-80
2023/04/12 02:49:44;;;;;;;6.18;4.47;;;;;;;1.72;99.63;99491.44;10524714;28;20146;-78
2023/04/12 02:54:50;;;;;;;5.00;4.22;;;;;;;1.50;100.00;99484.63;10528779;28;20135;-77
2023/04/12 02:59:53;;;;;;;5.88;4.40;;;;;;;1.58;100.00;99482.00;10520094;28;20072;-77
2023/04/12 03:04:58;;;;;;;4.85;4.35;;;;;;;1.37;100.00;99481.22;10521267;28;20047;-78
2023/04/12 03:10:12;;;;;;;4.75;4.15;;;;;;;1.36;100.00;99481.25;10529980;28;20192;-79
2023/04/12 03:15:22;;;;;;;6.60;4.88;;;;;;;1.29;100.00;99466.59;10521686;28;20047;-78
2023/04/12 03:20:27;;;;;;;4.53;4.13;;;;;;;1.20;100.00;99465.78;10544944;28;20046;-78
2023/04/12 03:25:47;;;;;;;7.68;4.28;;;;;;;1.60;100.00;99462.16;10550042;28;20036;-79
2023/04/12 03:31:09;;;;;;;5.97;5.15;;;;;;;1.42;100.00;99448.44;10529184;28;20050;-78
2023/04/12 03:36:16;;;;;;;5.00;4.43;;;;;;;1.19;100.00;99447.63;10523590;28;20058;-79
2023/04/12 03:41:24;;;;;;;6.32;4.88;;;;;;;1.13;100.00;99430.41;10534785;28;20484;-79
2023/04/12 03:46:26;;;;;;;4.95;4.55;;;;;;;1.11;100.00;99439.06;10520517;28;20067;-79
2023/04/12 03:51:32;;;;;;;5.22;3.92;;;;;;;1.14;100.00;99429.53;10524633;28;20051;-80
2023/04/12 03:56:37;;;;;;;4.47;3.92;;;;;;;1.55;100.00;99420.75;10531110;28;20060;-78
2023/04/12 04:01:45;;;;;;;5.28;4.30;;;;;;;1.44;100.00;99423.38;10527725;28;20074;-78
2023/04/12 04:06:47;;;;;;;8.77;4.93;;;;;;;1.38;100.00;99420.81;10525896;28;20052;-78
2023/04/12 04:11:50;;;;;;;4.65;3.75;;;;;;;1.63;100.00;99416.34;10526894;28;20439;-79
2023/04/12 04:16:54;;;;;;;6.47;3.97;;;;;;;1.48;100.00;99414.72;10551810;28;20063;-79
2023/04/12 04:21:56;;;;;;;4.97;3.83;;;;;;;1.20;100.00;99407.97;10528565;28;20473;-80
2023/04/12 04:27:00;;;;;;;4.22;3.50;;;;;;;1.17;100.00;99402.78;10533143;28;20063;-80
2023/04/12 04:32:02;;;;;;;3.97;3.58;;;;;;;1.51;100.00;99400.91;10549420;28;20039;-78
2023/04/12 04:37:04;;;;;;;11.27;4.53;;;;;;;1.48;100.00;99395.72;10528502;28;20480;-79
2023/04/12 04:42:05;;;;;;;5.00;3.83;;;;;;;1.39;100.00;99388.00;10529767;28;20070;-79
2023/04/12 04:47:21;;;;;;;6.50;3.92;;;;;;;1.24;100.00;99383.78;10530380;28;20056;-80
2023/04/12 04:52:23;;;;;;;3.45;3.10;;;;;;;1.30;100.00;99401.00;10547044;28;20124;-81
2023/04/12 04:57:27;;;;;;;5.68;3.40;;;;;;;1.52;99.89;99389.66;10532324;28;20107;-80
2023/04/12 05:02:30;;;;;;;3.85;3.13;;;;;;;1.41;99.96;99389.72;10549501;28;20129;-79
2023/04/12 05:07:35;;;;;;;5.25;3.15;;;;;;;1.61;100.00;99386.16;10530071;28;20052;-80
2023/04/12 05:12:36;;;;;;;3.88;3.13;;;;;;;1.73;98.41;99391.28;10543128;28;20047;-79
2023/04/12 05:17:38;;;;;;;6.50;2.97;;;;;;;1.55;100.00;99389.66;10541071;28;20058;-78
2023/04/12 05:22:40;;;;;;;6.57;3.67;;;;;;;1.69;100.00;99382.66;10525245;28;20040;-79
2023/04/12 05:27:43;;;;;;;5.10;3.35;;;;;;;1.77;98.68;99375.69;10545694;28;20036;-78
2023/04/12 05:32:49;;;;;;;6.60;2.72;;;;;;;1.87;97.13;99376.50;10518677;28;20054;-79
2023/04/12 05:37:52;;;;;;;5.72;2.50;;;;;;;2.37;93.90;99376.94;10527297;28;20104;-79
2023/04/12 05:42:54;;;;;;;5.57;2.08;;;;;;;2.55;90.76;99362.94;10529580;28;20052;-80
2023/04/12 05:47:57;;;;;;;5.53;2.10;;;;;;;2.87;89.31;99345.28;10509779;28;20040;-79
2023/04/12 05:53:00;;;;;;;5.60;2.60;;;;;;;2.98;88.64;99340.81;10529394;28;20106;-79
2023/04/12 05:58:05;;;;;;;2.72;2.00;;;;;;;2.86;89.11;99327.13;10545858;28;20481;-78
2023/04/12 06:03:09;;;;;;;2.95;2.10;;;;;;;3.77;85.39;99319.81;10525312;28;20048;-78
2023/04/12 06:08:13;;;;;;;3.80;2.08;;;;;;;4.54;79.44;99308.94;10519850;28;20485;-78
2023/04/12 06:13:16;;;;;;;3.60;1.83;;;;;;;4.84;77.58;99294.47;10542921;28;20142;-78
2023/04/12 06:18:17;;;;;;;3.50;2.28;;;;;;;5.78;72.43;99275.00;10532450;28;20115;-78
2023/04/12 06:23:19;;;;;;;4.10;2.13;;;;;;;5.87;72.50;99276.50;10535179;28;20070;-79
2023/04/12 06:28:23;;;;;;;3.90;2.10;;;;;;;6.21;70.62;99263.50;10539767;28;20488;-80
2023/04/12 06:33:26;;;;;;;3.53;1.70;;;;;;;6.05;73.80;99252.59;10542441;28;20374;-79
2023/04/12 06:38:28;;;;;;;4.63;2.58;;;;;;;6.70;68.83;99251.72;10536672;28;20050;-80
2023/04/12 06:43:30;;;;;;;4.68;2.40;;;;;;;6.61;67.89;99236.31;10537350;28;20097;-74
2023/04/12 06:48:32;;;;;;;4.35;2.25;;;;;;;6.31;71.21;99228.44;10554211;28;20123;-78
2023/04/12 06:53:34;;;;;;;3.47;2.70;;;;;;;6.35;75.39;99222.22;10532213;28;20101;-80
2023/04/12 06:58:36;;;;;;;5.95;2.88;;;;;;;6.83;68.33;99213.91;10534583;28;20040;-79
2023/04/12 07:03:38;;;;;;;6.03;2.72;;;;;;;6.81;69.92;99210.44;10553931;28;20127;-78
2023/04/12 07:08:40;;;;;;;6.13;3.20;;;;;;;6.96;69.54;99203.94;10549283;28;20115;-79
2023/04/12 07:13:44;;;;;;;5.07;3.40;;;;;;;7.43;69.47;99205.03;10555847;28;20048;-80
2023/04/12 07:18:46;;;;;;;4.82;4.38;;;;;;;7.24;69.24;99198.69;10538860;28;20055;-79
2023/04/12 07:23:50;;;;;;;3.70;3.33;;;;;;;7.66;69.48;99188.63;10551662;28;20120;-80
2023/04/12 07:28:52;;;;;;;5.47;3.97;;;;;;;8.07;66.13;99196.81;10555630;28;20040;-79
2023/04/12 07:33:53;;;;;;;4.20;3.80;;;;;;;7.97;67.37;99183.19;10551133;28;20117;-80
2023/04/12 07:38:55;;;;;;;5.85;4.53;;;;;;;8.44;64.88;99166.72;10536669;28;20099;-80
2023/04/12 07:43:57;;;;;;;4.45;3.90;;;;;;;8.67;65.70;99163.22;10558315;28;20100;-80
2023/04/12 07:48:59;;;;;;;4.97;3.88;;;;;;;8.82;66.61;99152.19;10558675;28;20163;-80
2023/04/12 07:54:01;;;;;;;6.15;4.22;;;;;;;9.33;63.79;99145.78;10540408;28;20048;-80
2023/04/12 07:59:03;;;;;;;4.40;3.58;;;;;;;9.61;61.81;99132.38;10540665;28;20044;-80
2023/04/12 08:04:05;;;;;;;9.88;3.80;;;;;;;9.92;62.58;99118.81;10559471;28;20130;-80
2023/04/12 08:09:07;;;;;;;3.53;3.10;;;;;;;10.38;60.29;99098.38;10558306;28;20112;-79
2023/04/12 08:14:11;;;;;;;4.72;2.83;;;;;;;10.93;56.43;99093.16;10554539;28;20123;-82
2023/04/12 08:19:13;;;;;;;3.40;2.47;;;;;;;11.60;53.19;99079.28;10555170;28;20058;-81
2023/04/12 08:24:15;;;;;;;3.63;1.50;;;;;;;12.11;48.25;99077.53;10554803;28;20036;-79
2023/04/12 08:29:17;;;;;;;1.48;0.70;;;;;;;12.32;42.10;99074.69;10535867;28;20067;-80
2023/04/12 08:34:21;;;;;;;2.58;0.75;;;;;;;12.43;42.48;99072.28;10553946;28;20048;-81
2023/04/12 08:39:23;;;;;;;2.60;0.70;;;;;;;12.73;41.77;99064.47;10516518;28;20383;-73
2023/04/12 08:44:35;;;;;;;3.30;0.80;;;;;;;13.00;41.00;99048.88;10534385;28;20478;-74
2023/04/12 08:49:37;;;;;;;2.28;0.88;;;;;;;13.03;41.13;99040.81;10534853;28;20080;-73
2023/04/12 08:54:39;;;;;;;3.58;0.90;;;;;;;13.31;42.11;99040.06;10533707;28;20062;-74
2023/04/12 08:59:42;;;;;;;2.38;0.77;;;;;;;12.98;40.99;99034.94;10534656;28;20440;-73
2023/04/12 09:04:48;;;;;;;2.72;0.80;;;;;;;13.43;38.94;99029.75;10533956;28;20135;-74
2023/04/12 09:09:50;;;;;;;1.73;0.52;;;;;;;13.56;38.91;99022.78;10534027;28;20052;-72
2023/04/12 09:15:11;;;;;;;1.77;0.70;;;;;;;13.99;37.49;99022.78;10515168;28;20040;-72
2023/04/12 09:20:16;;;;;;;2.05;0.70;;;;;;;13.72;37.56;99020.06;10533429;28;20076;-73
2023/04/12 09:25:35;;;;;;;3.58;0.80;;;;;;;14.16;37.66;99005.88;10514611;28;20040;-74
2023/04/12 09:30:41;;;;;;;1.85;0.50;;;;;;;14.83;36.98;98999.81;10514313;28;20036;-73
2023/04/12 09:35:42;;;;;;;2.13;0.73;;;;;;;14.85;36.57;98987.31;10498025;28;20139;-72
2023/04/12 09:40:44;;;;;;;2.97;0.90;;;;;;;15.05;36.07;98972.78;10532822;28;20052;-73
2023/04/12 09:45:47;;;;;;;2.40;0.70;;;;;;;14.76;36.68;98968.56;10537413;28;20432;-73
2023/04/12 09:50:58;;;;;;;3.88;0.95;;;;;;;14.80;38.41;98970.06;10522228;28;20052;-72
2023/04/12 09:56:07;;;;;;;2.13;0.68;;;;;;;14.51;36.76;98949.00;10540729;28;20100;-74
2023/04/12 10:01:09;;;;;;;3.10;0.70;;;;;;;13.95;37.95;98950.81;10540508;28;20112;-74
2023/04/12 10:06:12;;;;;;;2.28;0.70;;;;;;;13.81;40.18;98935.84;10539810;28;20104;-74
2023/04/12 10:11:13;;;;;;;3.15;0.90;;;;;;;14.02;38.87;98919.56;10521172;28;20450;-73
2023/04/12 10:16:15;;;;;;;2.00;0.85;;;;;;;14.68;38.45;98912.66;10539418;28;20081;-74
2023/04/12 10:21:17;;;;;;;1.77;0.80;;;;;;;14.85;39.02;98909.75;10539796;28;20381;-74
2023/04/12 10:26:19;;;;;;;4.22;0.90;;;;;;;14.82;39.12;98897.56;10520500;28;20067;-73
2023/04/12 10:31:31;;;;;;;3.72;1.00;;;;;;;15.10;38.20;98898.38;10539156;28;20119;-73
2023/04/12 10:36:52;;;;;;;2.97;1.23;;;;;;;14.65;38.62;98884.63;10539059;28;20036;-74
2023/04/12 10:42:25;;;;;;;3.50;1.02;;;;;;;15.01;39.53;98877.81;10538852;28;20055;-73
2023/04/12 10:47:54;;;;;;;3.35;1.13;;;;;;;15.11;39.56;98868.28;10520836;28;20381;-73
2023/04/12 10:53:11;;;;;;;3.63;1.08;;;;;;;15.50;41.58;98861.19;10520062;28;20044;-71
2023/04/12 10:58:48;;;;;;;3.33;1.40;;;;;;;15.39;40.05;98848.66;10537659;28;20044;-71
2023/04/12 11:04:15;;;;;;;4.22;1.10;;;;;;;15.34;39.90;98845.50;10519628;28;20366;-72
2023/04/12 11:09:44;;;;;;;1.70;1.08;;;;;;;15.84;39.92;98841.91;10519177;28;20392;-72
2023/04/12 11:14:51;;;;;;;2.22;1.58;;;;;;;16.36;42.41;98829.31;10518648;28;20048;-72
2023/04/12 11:20:00;;;;;;;3.25;2.00;;;;;;;15.98;41.44;98833.00;10519836;28;20044;-72
2023/04/12 11:25:02;;;;;;;3.75;2.10;;;;;;;15.19;42.31;98820.13;10537364;28;20105;-71
2023/04/12 11:30:04;;;;;;;3.40;1.90;;;;;;;14.99;44.98;98810.91;10537340;28;20072;-72
2023/04/12 11:35:09;;;;;;;3.15;1.60;;;;;;;15.09;45.47;98791.63;10518205;28;20059;-71
2023/04/12 11:40:13;;;;;;;2.83;1.65;;;;;;;14.79;43.38;98786.69;10517997;28;20135;-71
2023/04/12 11:45:18;;;;;;;3.08;1.55;;;;;;;15.35;44.15;98783.66;10536888;28;20051;-73
2023/04/12 11:50:29;;;;;;;6.45;1.75;;;;;;;15.62;43.95;98773.72;10536198;28;20047;-71
2023/04/12 11:55:33;;;;;;;3.10;1.77;;;;;;;15.71;42.84;98755.50;10517463;28;20116;-71
2023/04/12 12:00:35;;;;;;;3.17;1.08;;;;;;;16.05;40.95;98749.41;10536027;28;20064;-71
2023/04/12 12:05:39;;;;;;;3.38;1.23;;;;;;;15.94;40.20;98735.25;10517890;28;20120;-71
2023/04/12 12:10:42;;;;;;;3.13;1.75;;;;;;;15.47;42.36;98735.09;10534896;28;20138;-71
2023/04/12 12:16:07;;;;;;;3.30;1.33;;;;;;;15.63;41.58;98724.25;10536281;28;20374;-73
2023/04/12 12:21:11;;;;;;;3.42;1.50;;;;;;;15.49;41.55;98711.16;10535043;28;20055;-71
2023/04/12 12:26:26;;;;;;;3.13;1.38;;;;;;;15.53;41.52;98697.56;10535412;28;20123;-72
2023/04/12 12:31:27;;;;;;;3.67;1.55;;;;;;;16.19;42.66;98673.28;10499878;28;20085;-71
2023/04/12 12:36:33;;;;;;;2.70;1.10;;;;;;;16.79;41.23;98662.41;10492103;28;20497;-71
2023/04/12 12:41:36;;;;;;;3.15;1.73;;;;;;;15.81;40.60;98656.69;10474914;28;20044;-71
2023/04/12 12:46:37;;;;;;;3.33;1.52;;;;;;;15.78;41.09;98650.78;10491990;28;20545;-71
2023/04/12 12:51:42;;;;;;;3.67;1.85;;;;;;;15.10;43.22;98655.72;10492066;28;20052;-72
2023/04/12 12:56:44;;;;;;;3.15;1.30;;;;;;;15.23;41.68;98633.63;10491670;28;20106;-72
2023/04/12 13:01:46;;;;;;;2.97;1.02;;;;;;;15.18;41.49;98626.03;10491549;28;20040;-71
2023/04/12 13:06:48;;;;;;;3.63;1.10;;;;;;;15.14;43.77;98636.00;10492040;28;20478;-71
2023/04/12 13:11:50;;;;;;;2.33;0.70;;;;;;;15.17;42.21;98634.94;10492522;28;20075;-72
2023/04/12 13:16:52;;;;;;;4.10;1.00;;;;;;;15.13;40.89;98626.34;10492578;28;20114;-72
2023/04/12 13:21:54;;;;;;;3.67;1.00;;;;;;;15.08;40.18;98617.06;10499514;28;20501;-72
2023/04/12 13:26:57;;;;;;;3.90;1.10;;;;;;;14.84;40.90;98606.47;10501070;28;20032;-71
2023/04/12 13:31:58;;;;;;;4.00;0.82;;;;;;;14.79;41.18;98613.91;10501573;28;20116;-72
2023/04/12 13:37:00;;;;;;;1.98;0.98;;;;;;;14.92;41.19;98608.53;10501415;28;20041;-71
2023/04/12 13:42:02;;;;;;;1.80;0.75;;;;;;;14.84;39.46;98603.81;10482032;28;20071;-72
2023/04/12 13:47:04;;;;;;;3.42;0.90;;;;;;;14.61;40.41;98602.84;10482399;28;20036;-72
2023/04/12 13:52:06;;;;;;;3.08;1.00;;;;;;;14.38;42.55;98593.81;10499523;28;20040;-71
2023/04/12 13:57:09;;;;;;;3.63;1.30;;;;;;;14.46;41.18;98588.00;10480940;28;20080;-71
2023/04/12 14:02:10;;;;;;;2.47;0.90;;;;;;;14.47;41.11;98582.59;10499277;28;20155;-71
2023/04/12 14:07:12;;;;;;;3.42;1.10;;;;;;;14.34;41.76;98587.06;10499678;28;20498;-71
2023/04/12 14:12:14;;;;;;;3.00;0.80;;;;;;;14.12;42.48;98588.59;10498581;28;20249;-71
2023/04/12 14:17:16;;;;;;;2.50;0.80;;;;;;;14.10;43.37;98595.75;10498496;28;20079;-71
2023/04/12 14:22:18;;;;;;;2.35;0.77;;;;;;;14.18;45.73;98599.66;10498591;28;20044;-71
2023/04/12 14:27:20;;;;;;;3.85;1.23;;;;;;;13.62;47.97;98597.28;10512807;28;20040;-71
2023/04/12 14:32:22;;;;;;;6.55;1.40;;;;;;;13.35;53.15;98594.69;10498524;28;20120;-70
2023/04/12 14:37:24;;;;;;;1.38;0.88;;;;;;;13.16;54.39;98592.41;10497676;28;20066;-71
2023/04/12 14:42:26;;;;;;;4.53;1.00;;;;;;;13.00;56.63;98595.16;10496175;28;20044;-70
2023/04/12 14:47:27;;;;;;;4.15;1.20;;;;;;;12.72;60.21;98598.72;10497268;28;20036;-70
2023/04/12 14:52:29;;;;;;;2.13;1.35;;;;;;;12.54;58.80;98603.38;10497502;28;20451;-70
2023/04/12 14:57:33;;;;;;;3.17;1.35;;;;;;;12.18;63.13;98605.66;10497169;28;20040;-71
2023/04/12 15:02:35;;;;;;;3.38;1.38;;;;;;;11.82;65.43;98599.88;10498642;28;20485;-71
2023/04/12 15:07:37;;;;;;;3.13;1.48;;;;;;;11.72;65.54;98597.84;10497591;28;20068;-71
2023/04/12 15:12:39;;;;;;;2.95;1.60;;;;;;;11.62;68.75;98597.53;10478058;28;20044;-71
2023/04/12 15:17:41;;;;;;;2.20;1.20;;;;;;;11.53;67.92;98585.75;10497656;28;20113;-71
2023/04/12 15:22:43;;;;;;;2.92;1.80;;;;;;;11.52;70.83;98591.13;10496234;28;20098;-71
2023/04/12 15:27:45;;;;;;;3.83;1.80;;;;;;;11.34;70.27;98585.16;10496519;28;20127;-70
2023/04/12 15:32:47;;;;;;;3.03;1.45;;;;;;;11.21;74.87;98592.91;10495579;28;20054;-71
2023/04/12 15:37:49;;;;;;;3.45;1.98;;;;;;;11.30;73.60;98586.28;10495259;28;20036;-70
2023/04/12 15:42:51;;;;;;;2.38;1.40;;;;;;;11.37;71.33;98587.59;10494939;28;20123;-71
2023/04/12 15:47:58;;;;;;;3.10;1.50;;;;;;;11.37;70.38;98570.00;10494875;28;20041;-70
2023/04/12 15:53:00;;;;;;;2.90;1.40;;;;;;;11.32;73.13;98579.13;10495389;28;20410;-70
2023/04/12 15:58:02;;;;;;;2.28;1.00;;;;;;;11.42;73.83;98561.88;10495606;28;20081;-71
2023/04/12 16:03:06;;;;;;;2.55;1.35;;;;;;;11.53;75.15;98558.59;10498357;28;20091;-71
2023/04/12 16:08:09;;;;;;;2.40;1.23;;;;;;;11.44;75.40;98552.09;10478103;28;20453;-72
2023/04/12 16:13:15;;;;;;;2.45;1.55;;;;;;;11.28;76.29;98551.28;10495207;28;20476;-70
2023/04/12 16:18:16;;;;;;;2.15;1.15;;;;;;;11.17;78.24;98538.78;10494755;28;20094;-70
2023/04/12 16:23:18;;;;;;;4.38;1.70;;;;;;;11.06;73.92;98534.13;10475543;28;20055;-71
2023/04/12 16:28:21;;;;;;;2.35;1.27;;;;;;;11.17;76.05;98523.00;10495152;28;20036;-70
2023/04/12 16:33:23;;;;;;;1.90;1.13;;;;;;;11.23;77.56;98513.91;10494066;28;20421;-71
2023/04/12 16:38:25;;;;;;;2.53;1.13;;;;;;;11.31;75.63;98499.38;10494059;28;20044;-72
2023/04/12 16:43:27;;;;;;;3.38;1.20;;;;;;;11.39;75.10;98487.56;10474693;28;20057;-71
2023/04/12 16:48:29;;;;;;;2.03;1.30;;;;;;;11.26;76.94;98482.16;10494811;28;20056;-71
2023/04/12 16:53:31;;;;;;;2.03;1.00;;;;;;;11.32;73.92;98472.09;10493241;28;20102;-71
2023/04/12 16:58:33;;;;;;;2.42;1.38;;;;;;;11.22;74.07;98465.72;10475590;28;20079;-71
2023/04/12 17:03:35;;;;;;;2.13;1.00;;;;;;;11.13;75.24;98447.84;10493684;28;20411;-71
2023/04/12 17:08:37;;;;;;;2.05;1.20;;;;;;;11.29;72.54;98450.44;10493598;28;20041;-72
2023/04/12 17:13:39;;;;;;;2.35;1.00;;;;;;;11.36;72.58;98451.72;10494074;28;20146;-71
2023/04/12 17:18:42;;;;;;;1.58;1.02;;;;;;;11.19;74.01;98444.84;10493825;28;20139;-71
2023/04/12 17:23:44;;;;;;;2.45;1.30;;;;;;;11.18;75.31;98437.91;10493576;28;20036;-71
2023/04/12 17:28:46;;;;;;;1.40;1.08;;;;;;;11.30;73.77;98449.47;10493210;28;20535;-71
2023/04/12 17:33:47;;;;;;;1.50;1.10;;;;;;;11.08;75.49;98448.13;10493142;28;20040;-71
2023/04/12 17:38:49;;;;;;;1.75;1.52;;;;;;;11.11;76.05;98440.06;10492424;28;20040;-71
2023/04/12 17:43:51;;;;;;;2.63;1.73;;;;;;;11.27;72.14;98455.75;10493161;28;20457;-71
2023/04/12 17:48:53;;;;;;;2.83;1.63;;;;;;;11.28;72.82;98446.91;10475098;28;20072;-71
2023/04/12 17:53:57;;;;;;;2.30;2.08;;;;;;;11.16;74.24;98444.22;10492448;28;20520;-70
2023/04/12 17:59:00;;;;;;;3.45;1.92;;;;;;;11.16;74.31;98444.22;10492503;28;20413;-71
2023/04/12 18:04:04;;;;;;;2.63;2.33;;;;;;;11.08;74.30;98439.38;10492920;28;20118;-71
2023/04/12 18:09:09;;;;;;;2.25;1.90;;;;;;;11.14;75.25;98439.00;10498427;28;20079;-70
2023/04/12 18:14:11;;;;;;;2.85;2.50;;;;;;;11.06;76.37;98436.84;10482735;28;20052;-72
2023/04/12 18:19:15;;;;;;;3.55;2.13;;;;;;;11.21;74.39;98437.72;10482749;28;20045;-71
2023/04/12 18:24:17;;;;;;;2.45;2.13;;;;;;;11.06;75.56;98426.31;10495512;28;20497;-71
2023/04/12 18:29:19;;;;;;;2.40;1.70;;;;;;;11.17;73.71;98427.47;10522808;28;20048;-72
2023/04/12 18:34:21;;;;;;;2.47;1.50;;;;;;;11.17;73.81;98435.38;10522575;28;20083;-71
2023/04/12 18:39:23;;;;;;;2.50;1.50;;;;;;;10.86;76.62;98438.03;10541006;28;20127;-71
2023/04/12 18:44:26;;;;;;;4.55;1.70;;;;;;;10.64;77.90;98442.81;10522596;28;20058;-71
2023/04/12 18:49:29;;;;;;;2.13;1.50;;;;;;;10.81;77.22;98453.22;10542979;28;20036;-71
2023/04/12 18:54:31;;;;;;;1.67;1.35;;;;;;;10.73;77.01;98452.81;10540877;28;20055;-70
2023/04/12 18:59:33;;;;;;;3.15;1.77;;;;;;;10.86;76.55;98455.56;10541997;28;20056;-71
2023/04/12 19:04:35;;;;;;;2.97;2.03;;;;;;;10.60;79.07;98436.06;10522436;28;20389;-70
2023/04/12 19:09:37;;;;;;;1.90;1.80;;;;;;;10.54;79.28;98444.28;10541768;28;20070;-71
2023/04/12 19:14:39;;;;;;;2.08;1.73;;;;;;;10.53;79.17;98434.69;10522957;28;20036;-71
2023/04/12 19:19:42;;;;;;;3.33;2.10;;;;;;;10.46;80.29;98434.22;10505493;28;20056;-70
2023/04/12 19:24:46;;;;;;;3.28;2.22;;;;;;;10.17;82.43;98453.34;10541330;28;20044;-71
2023/04/12 19:29:50;;;;;;;2.90;2.10;;;;;;;10.01;83.87;98437.59;10542574;28;20051;-72
2023/04/12 19:34:52;;;;;;;2.53;2.20;;;;;;;10.22;82.83;98427.66;10542303;28;20040;-71
2023/04/12 19:39:54;;;;;;;2.85;1.83;;;;;;;10.42;80.44;98406.44;10520945;28;20150;-70
2023/04/12 19:44:56;;;;;;;3.17;2.10;;;;;;;10.17;82.41;98391.16;10520793;28;20054;-72
2023/04/12 19:49:59;;;;;;;2.60;2.20;;;;;;;10.10;83.58;98380.19;10518011;28;20036;-71
2023/04/12 19:55:01;;;;;;;6.32;2.10;;;;;;;10.36;82.54;98364.75;10481414;28;20076;-70
2023/04/12 20:00:11;;;;;;;1.85;1.73;;;;;;;10.44;81.87;98370.41;10516765;28;20055;-70
2023/04/12 20:05:14;;;;;;;2.15;1.90;;;;;;;10.26;81.98;98369.66;10513414;28;20447;-70
2023/04/12 20:10:16;;;;;;;3.15;2.30;;;;;;;10.19;83.14;98368.31;10495889;28;20044;-71
2023/04/12 20:15:18;;;;;;;2.38;2.17;;;;;;;10.24;83.37;98397.81;10519472;28;20067;-71
2023/04/12 20:20:20;;;;;;;2.17;1.80;;;;;;;10.04;84.89;98400.66;10538360;28;20051;-71
2023/04/12 20:25:22;;;;;;;2.97;2.15;;;;;;;9.81;87.12;98409.81;10537045;28;20101;-70
2023/04/12 20:30:25;;;;;;;3.30;2.30;;;;;;;9.99;86.70;98405.31;10518107;28;20051;-71
2023/04/12 20:35:27;;;;;;;2.95;2.63;;;;;;;10.06;86.19;98414.56;10537597;28;20203;-71
2023/04/12 20:40:29;;;;;;;3.17;2.78;;;;;;;10.03;86.35;98412.94;10536650;28;20066;-71
2023/04/12 20:45:31;;;;;;;3.17;2.72;;;;;;;10.17;85.13;98427.09;10537651;28;20407;-71
2023/04/12 20:50:33;;;;;;;3.50;3.20;;;;;;;10.02;86.65;98434.03;10536800;28;20056;-71
2023/04/12 20:55:35;;;;;;;6.28;5.75;;;;;;;10.10;87.81;98423.97;10535426;28;20047;-71
2023/04/12 21:00:37;;;;;;;8.23;7.63;;;;;;;10.19;87.26;98423.44;10534888;28;20075;-71
2023/04/12 21:05:39;;;;;;;8.27;7.78;;;;;;;10.28;86.06;98424.75;10534605;28;20048;-71
2023/04/12 21:10:41;;;;;;;7.03;6.63;;;;;;;10.56;83.44;98429.28;10515964;28;20063;-70
2023/04/12 21:15:43;;;;;;;6.70;6.30;;;;;;;10.61;83.56;98424.59;10533668;28;20394;-71
2023/04/12 21:20:49;;;;;;;6.72;6.22;;;;;;;10.76;81.96;98415.00;10534331;28;20107;-71
2023/04/12 21:25:50;;;;;;;6.05;5.65;;;;;;;10.82;81.93;98407.59;10533688;28;20381;-71
2023/04/12 21:30:53;;;;;;;6.22;4.70;;;;;;;10.73;82.45;98409.91;10533767;28;20130;-71
2023/04/12 21:35:55;;;;;;;4.65;4.00;;;;;;;10.67;82.47;98421.63;10533758;28;20036;-70
2023/04/12 21:41:04;;;;;;;3.80;3.60;;;;;;;10.80;82.53;98425.25;10518454;28;20048;-69
2023/04/12 21:46:06;;;;;;;4.40;4.00;;;;;;;10.81;81.78;98429.56;10541926;28;20043;-71
2023/04/12 21:51:08;;;;;;;4.05;3.70;;;;;;;10.90;81.78;98441.31;10540474;28;20059;-71
2023/04/12 21:56:10;;;;;;;4.18;3.88;;;;;;;10.70;83.50;98425.84;10540537;28;20040;-71
2023/04/12 22:01:12;;;;;;;5.28;4.88;;;;;;;10.82;82.26;98415.47;10522261;28;20062;-71
2023/04/12 22:06:15;;;;;;;4.72;4.38;;;;;;;10.73;83.16;98428.31;10540940;28;20071;-70
2023/04/12 22:11:17;;;;;;;5.45;4.95;;;;;;;10.60;84.69;98415.88;10540150;28;20095;-71
2023/04/12 22:16:20;;;;;;;5.15;4.75;;;;;;;10.44;85.12;98428.19;10540828;28;20450;-72
2023/04/12 22:21:22;;;;;;;8.15;7.50;;;;;;;10.49;85.42;98428.78;10540121;28;20044;-70
2023/04/12 22:26:24;;;;;;;7.88;7.28;;;;;;;10.48;86.35;98421.81;10505911;28;20052;-70
2023/04/12 22:31:26;;;;;;;7.70;7.15;;;;;;;10.56;85.87;98411.72;10540090;28;20139;-71
2023/04/12 22:36:28;;;;;;;7.00;6.50;;;;;;;10.63;86.77;98428.00;10539153;28;20064;-70
2023/04/12 22:41:31;;;;;;;5.40;5.00;;;;;;;10.60;85.80;98429.00;10539247;28;20121;-70
2023/04/12 22:46:37;;;;;;;9.40;4.43;;;;;;;10.69;86.36;98424.16;10538771;28;20044;-70
2023/04/12 22:51:39;;;;;;;3.92;3.63;;;;;;;10.86;84.62;98442.44;10537747;28;20109;-71
2023/04/12 22:56:44;;;;;;;3.03;2.83;;;;;;;10.99;83.67;98455.72;10538557;28;20048;-70
2023/04/12 23:01:46;;;;;;;3.17;2.55;;;;;;;11.09;82.29;98462.97;10537958;28;20070;-70
2023/04/12 23:06:53;;;;;;;2.88;2.67;;;;;;;11.00;82.72;98470.53;10537715;28;20050;-70
2023/04/12 23:11:55;;;;;;;2.30;2.10;;;;;;;11.05;82.32;98476.38;10519124;28;20465;-70
2023/04/12 23:16:57;;;;;;;2.65;2.20;;;;;;;10.92;83.38;98473.63;10536943;28;20093;-70
2023/04/12 23:21:58;;;;;;;2.30;2.10;;;;;;;10.91;83.52;98484.22;10518826;28;20044;-70
2023/04/12 23:27:01;;;;;;;2.45;1.75;;;;;;;10.97;83.26;98478.59;10537071;28;20390;-69
2023/04/12 23:32:03;;;;;;;2.72;1.73;;;;;;;10.77;84.64;98477.97;10536408;28;20047;-71
2023/04/12 23:37:05;;;;;;;1.33;1.23;;;;;;;10.79;nan;98477.88;10536293;28;20470;-71